createdAt,value
2022-10-21T00:02:09.001Z,13.10
2022-10-21T00:04:36.362Z,13.10
2022-10-21T00:07:09.828Z,13.00
2022-10-21T00:09:37.016Z,13.00
2022-10-21T00:12:10.763Z,13.00
2022-10-21T00:14:38.228Z,12.90
2022-10-21T00:17:11.703Z,13.00
2022-10-21T00:19:40.368Z,13.00
2022-10-21T00:22:13.789Z,13.00
2022-10-21T00:24:47.765Z,13.10
2022-10-21T00:27:28.095Z,13.10
2022-10-21T00:29:55.251Z,13.10
2022-10-21T00:32:28.919Z,13.20
2022-10-21T00:34:56.009Z,13.20
2022-10-21T00:37:29.843Z,13.30
2022-10-21T00:39:57.315Z,13.30
2022-10-21T00:42:45.514Z,13.30
2022-10-21T00:45:26.115Z,13.30
2022-10-21T00:48:18.794Z,13.30
2022-10-21T00:51:03.271Z,13.30
2022-10-21T00:53:38.798Z,13.30
2022-10-21T00:56:16.370Z,13.30
2022-10-21T00:58:52.813Z,13.20
2022-10-21T01:01:21.705Z,13.10
2022-10-21T01:03:57.954Z,13.10
2022-10-21T01:06:26.710Z,13.10
2022-10-21T01:09:03.971Z,13.10
2022-10-21T01:11:36.513Z,13.00
2022-10-21T01:14:39.679Z,12.90
2022-10-21T01:17:26.433Z,12.80
2022-10-21T01:20:18.944Z,12.80
2022-10-21T01:23:11.139Z,12.70
2022-10-21T01:26:07.972Z,12.70
2022-10-21T01:28:57.018Z,12.70
2022-10-21T01:31:50.868Z,12.60
2022-10-21T01:34:42.120Z,12.60
2022-10-21T01:37:32.792Z,12.60
2022-10-21T01:40:12.313Z,12.60
2022-10-21T01:42:58.799Z,12.50
2022-10-21T01:45:42.167Z,12.50
2022-10-21T01:48:21.617Z,12.40
2022-10-21T01:50:58.967Z,12.40
2022-10-21T01:53:37.879Z,12.40
2022-10-21T01:56:05.458Z,12.40
2022-10-21T01:58:42.727Z,12.40
2022-10-21T02:01:13.763Z,12.30
2022-10-21T02:03:49.942Z,12.30
2022-10-21T02:06:18.626Z,12.30
2022-10-21T02:08:53.088Z,12.30
2022-10-21T02:11:20.593Z,12.20
2022-10-21T02:13:57.784Z,12.20
2022-10-21T02:16:30.222Z,12.20
2022-10-21T02:19:07.296Z,12.30
2022-10-21T02:21:37.150Z,12.30
2022-10-21T02:24:36.996Z,12.20
2022-10-21T02:27:04.500Z,12.20
2022-10-21T02:29:45.827Z,12.30
2022-10-21T02:32:35.373Z,12.30
2022-10-21T02:35:51.006Z,12.30
2022-10-21T02:38:27.734Z,12.30
2022-10-21T02:41:21.042Z,12.20
2022-10-21T02:43:57.087Z,12.20
2022-10-21T02:46:31.810Z,12.20
2022-10-21T02:48:59.094Z,12.20
2022-10-21T02:51:26.800Z,12.20
2022-10-21T02:54:00.857Z,12.10
2022-10-21T02:56:34.766Z,12.10
2022-10-21T02:59:11.086Z,12.10
2022-10-21T03:01:39.384Z,12.10
2022-10-21T03:04:06.622Z,12.10
2022-10-21T03:06:41.180Z,12.10
2022-10-21T03:09:08.528Z,12.10
2022-10-21T03:11:43.759Z,12.10
2022-10-21T03:14:11.211Z,12.10
2022-10-21T03:16:45.317Z,12.20
2022-10-21T03:19:13.559Z,12.20
2022-10-21T03:21:47.805Z,12.20
2022-10-21T03:24:28.608Z,12.20
2022-10-21T03:27:03.724Z,12.20
2022-10-21T03:29:30.935Z,12.20
2022-10-21T03:32:04.950Z,12.20
2022-10-21T03:34:32.134Z,12.20
2022-10-21T03:37:06.335Z,12.20
2022-10-21T03:39:39.794Z,12.20
2022-10-21T03:42:07.245Z,12.20
2022-10-21T03:44:34.500Z,12.20
2022-10-21T03:47:09.000Z,12.20
2022-10-21T03:49:36.478Z,12.20
2022-10-21T03:52:09.764Z,12.20
2022-10-21T03:54:37.260Z,12.20
2022-10-21T03:57:04.719Z,12.20
2022-10-21T03:59:38.826Z,12.20
2022-10-21T04:02:06.243Z,12.20
2022-10-21T04:04:39.864Z,12.30
2022-10-21T04:07:13.769Z,12.30
2022-10-21T04:09:40.961Z,12.30
2022-10-21T04:12:08.401Z,12.30
2022-10-21T04:14:42.736Z,12.30
2022-10-21T04:17:10.209Z,12.30
2022-10-21T04:19:37.385Z,12.30
2022-10-21T04:22:10.755Z,12.40
2022-10-21T04:24:45.233Z,12.40
2022-10-21T04:27:18.759Z,12.50
2022-10-21T04:29:52.850Z,12.50
2022-10-21T04:32:20.320Z,12.50
2022-10-21T04:34:53.990Z,12.50
2022-10-21T04:37:21.575Z,12.40
2022-10-21T04:39:55.766Z,12.50
2022-10-21T04:42:23.466Z,12.40
2022-10-21T04:44:50.846Z,12.40
2022-10-21T04:47:25.146Z,12.50
2022-10-21T04:49:58.700Z,12.50
2022-10-21T04:52:32.865Z,12.50
2022-10-21T04:55:00.179Z,12.50
2022-10-21T04:57:27.601Z,12.50
2022-10-21T05:00:01.783Z,12.50
2022-10-21T05:02:36.037Z,12.40
2022-10-21T05:05:03.463Z,12.50
2022-10-21T05:07:36.729Z,12.40
2022-10-21T05:10:04.138Z,12.40
2022-10-21T05:12:37.869Z,12.40
2022-10-21T05:15:05.470Z,12.40
2022-10-21T05:17:40.534Z,12.40
2022-10-21T05:20:09.827Z,12.40
2022-10-21T05:22:44.020Z,12.40
2022-10-21T05:25:34.293Z,12.40
2022-10-21T05:28:02.527Z,12.40
2022-10-21T05:30:35.830Z,12.40
2022-10-21T05:33:03.298Z,12.40
2022-10-21T05:35:36.863Z,12.30
2022-10-21T05:38:05.523Z,12.30
2022-10-21T05:40:34.617Z,12.30
2022-10-21T05:43:08.907Z,12.30
2022-10-21T05:45:36.844Z,12.30
2022-10-21T05:48:07.168Z,12.30
2022-10-21T05:50:43.830Z,12.20
2022-10-21T05:53:11.169Z,12.30
2022-10-21T05:55:38.578Z,12.30
2022-10-21T05:58:13.029Z,12.30
2022-10-21T06:00:41.355Z,12.30
2022-10-21T06:03:08.809Z,12.40
2022-10-21T06:05:42.831Z,12.40
2022-10-21T06:08:10.269Z,12.40
2022-10-21T06:10:37.506Z,12.40
2022-10-21T06:13:11.999Z,12.40
2022-10-21T06:15:39.928Z,12.40
2022-10-21T06:18:07.418Z,12.40
2022-10-21T06:20:42.070Z,12.40
2022-10-21T06:23:09.789Z,12.40
2022-10-21T06:25:57.899Z,12.40
2022-10-21T06:28:31.910Z,12.50
2022-10-21T06:31:05.831Z,12.50
2022-10-21T06:33:35.824Z,12.50
2022-10-21T06:36:09.871Z,12.50
2022-10-21T06:38:38.239Z,12.50
2022-10-21T06:41:16.120Z,12.50
2022-10-21T06:43:43.800Z,12.50
2022-10-21T06:46:22.029Z,12.60
2022-10-21T06:48:56.049Z,12.60
2022-10-21T06:51:32.018Z,12.60
2022-10-21T06:54:06.874Z,12.50
2022-10-21T06:56:34.024Z,12.50
2022-10-21T06:59:02.480Z,12.60
2022-10-21T07:01:59.313Z,12.60
2022-10-21T07:04:33.984Z,12.60
2022-10-21T07:07:01.251Z,12.60
2022-10-21T07:09:34.961Z,12.60
2022-10-21T07:12:02.551Z,12.70
2022-10-21T07:14:36.859Z,12.70
2022-10-21T07:17:05.127Z,12.70
2022-10-21T07:19:40.261Z,12.80
2022-10-21T07:22:07.556Z,12.80
2022-10-21T07:24:42.945Z,12.80
2022-10-21T07:27:22.903Z,12.70
2022-10-21T07:29:50.285Z,12.80
2022-10-21T07:32:23.780Z,12.80
2022-10-21T07:34:51.016Z,12.80
2022-10-21T07:37:18.449Z,12.80
2022-10-21T07:39:51.759Z,12.80
2022-10-21T07:42:20.589Z,12.90
2022-10-21T07:44:50.981Z,12.90
2022-10-21T07:47:25.231Z,12.90
2022-10-21T07:49:53.339Z,12.90
2022-10-21T07:52:28.004Z,12.90
2022-10-21T07:54:55.272Z,12.90
2022-10-21T07:57:22.550Z,12.90
2022-10-21T07:59:55.979Z,12.90
2022-10-21T08:02:30.839Z,13.00
2022-10-21T08:04:58.239Z,12.90
2022-10-21T08:07:32.839Z,12.90
2022-10-21T08:10:00.348Z,12.90
2022-10-21T08:12:34.981Z,13.00
2022-10-21T08:15:02.199Z,13.00
2022-10-21T08:17:36.010Z,13.00
2022-10-21T08:20:03.990Z,13.10
2022-10-21T08:22:31.117Z,13.20
2022-10-21T08:25:04.943Z,13.20
2022-10-21T08:27:45.845Z,13.30
2022-10-21T08:30:19.927Z,13.30
2022-10-21T08:32:47.558Z,13.30
2022-10-21T08:35:14.714Z,13.40
2022-10-21T08:37:48.896Z,13.40
2022-10-21T08:40:23.722Z,13.40
2022-10-21T08:42:57.959Z,13.40
2022-10-21T08:45:49.539Z,13.40
2022-10-21T08:48:28.898Z,13.40
2022-10-21T08:51:04.898Z,13.40
2022-10-21T08:53:45.523Z,13.40
2022-10-21T08:58:53.108Z,13.50
2022-10-21T09:01:41.926Z,13.50
2022-10-21T09:04:24.105Z,13.50
2022-10-21T09:07:16.923Z,13.60
2022-10-21T09:10:16.096Z,13.60
2022-10-21T09:13:14.841Z,13.60
2022-10-21T09:16:16.896Z,13.70
2022-10-21T09:19:16.287Z,13.70
2022-10-21T09:22:29.950Z,13.70
2022-10-21T09:25:39.976Z,13.80
2022-10-21T09:28:14.690Z,14.00
2022-10-21T09:30:50.889Z,14.10
2022-10-21T09:33:27.391Z,14.20
2022-10-21T09:36:08.955Z,14.40
2022-10-21T09:39:13.884Z,14.50
2022-10-21T09:41:50.231Z,14.60
2022-10-21T09:44:27.042Z,14.60
2022-10-21T09:46:54.453Z,14.70
2022-10-21T09:50:05.233Z,14.90
2022-10-21T09:52:36.021Z,15.00
2022-10-21T09:55:04.516Z,15.20
2022-10-21T09:58:04.817Z,15.20
2022-10-21T10:00:49.368Z,15.20
2022-10-21T10:03:53.958Z,15.10
2022-10-21T10:06:37.432Z,15.10
2022-10-21T10:09:21.038Z,15.00
2022-10-21T10:11:54.912Z,14.90
2022-10-21T10:14:49.960Z,14.90
2022-10-21T10:17:33.174Z,14.80
2022-10-21T10:20:06.992Z,14.80
2022-10-21T10:23:04.898Z,14.70
2022-10-21T10:25:53.888Z,14.70
2022-10-21T10:28:33.720Z,14.60
2022-10-21T10:31:01.172Z,14.50
2022-10-21T10:33:41.887Z,14.40
2022-10-21T10:36:19.984Z,14.30
2022-10-21T10:39:02.152Z,14.30
2022-10-21T10:41:37.262Z,14.30
2022-10-21T10:44:30.833Z,14.30
2022-10-21T10:47:08.242Z,14.20
2022-10-21T10:49:46.948Z,14.20
2022-10-21T10:52:22.150Z,14.20
2022-10-21T10:55:16.129Z,14.20
2022-10-21T10:57:58.817Z,14.20
2022-10-21T11:00:33.952Z,14.20
2022-10-21T11:03:10.242Z,14.20
2022-10-21T11:05:57.938Z,14.20
2022-10-21T11:08:34.303Z,14.20
2022-10-21T11:11:11.951Z,14.20
2022-10-21T11:13:46.944Z,14.20
2022-10-21T11:16:24.383Z,14.20
2022-10-21T11:19:23.900Z,14.20
2022-10-21T11:21:55.887Z,14.20
2022-10-21T11:25:12.042Z,14.20
2022-10-21T11:27:52.395Z,14.20
2022-10-21T11:30:31.011Z,14.20
2022-10-21T11:33:23.941Z,14.30
2022-10-21T11:35:59.206Z,14.30
2022-10-21T11:38:53.976Z,14.30
2022-10-21T11:41:41.876Z,14.30
2022-10-21T11:44:20.294Z,14.30
2022-10-21T11:47:24.895Z,14.40
2022-10-21T11:50:26.856Z,14.40
2022-10-21T11:53:18.912Z,14.50
2022-10-21T11:56:23.933Z,14.50
2022-10-21T11:59:06.538Z,14.50
2022-10-21T12:01:55.495Z,14.50
2022-10-21T12:04:31.114Z,14.60
2022-10-21T12:07:11.224Z,14.60
2022-10-21T12:09:49.559Z,14.60
2022-10-21T12:12:29.000Z,14.60
2022-10-21T12:15:04.894Z,14.60
2022-10-21T12:17:41.965Z,14.60
2022-10-21T12:20:27.995Z,14.70
2022-10-21T12:23:05.094Z,14.70
2022-10-21T12:25:59.921Z,14.80
2022-10-21T12:29:20.856Z,14.80
2022-10-21T12:31:59.548Z,14.80
2022-10-21T12:34:27.479Z,14.80
2022-10-21T12:36:55.214Z,14.80
2022-10-21T12:39:40.916Z,14.80
2022-10-21T12:42:15.716Z,14.80
2022-10-21T12:44:57.988Z,14.80
2022-10-21T12:47:29.750Z,14.80
2022-10-21T12:50:21.941Z,14.80
2022-10-21T12:53:09.473Z,14.80
2022-10-21T12:55:47.850Z,14.80
2022-10-21T12:58:39.046Z,14.80
2022-10-21T13:01:33.947Z,14.80
2022-10-21T13:04:07.926Z,14.80
2022-10-21T13:07:02.006Z,14.80
2022-10-21T13:09:35.742Z,14.80
2022-10-21T13:12:19.988Z,14.80
2022-10-21T13:14:56.467Z,14.80
2022-10-21T13:17:29.862Z,14.90
2022-10-21T13:20:15.528Z,14.90
2022-10-21T13:23:05.951Z,14.90
2022-10-21T13:25:41.898Z,14.90
2022-10-21T13:28:15.709Z,14.90
2022-10-21T13:30:55.892Z,14.90
2022-10-21T13:33:33.832Z,15.00
2022-10-21T13:36:17.380Z,15.00
2022-10-21T13:38:53.017Z,15.00
2022-10-21T13:41:34.921Z,15.00
2022-10-21T13:44:05.962Z,15.00
2022-10-21T13:46:47.969Z,15.00
2022-10-21T13:49:30.062Z,15.00
2022-10-21T13:52:03.881Z,15.00
2022-10-21T13:54:35.545Z,15.00
2022-10-21T13:57:17.903Z,15.00
2022-10-21T13:59:45.093Z,15.00
2022-10-21T14:02:32.968Z,15.00
2022-10-21T14:05:00.131Z,15.00
2022-10-21T14:07:34.916Z,15.10
2022-10-21T14:10:03.096Z,15.10
2022-10-21T14:12:42.148Z,15.10
2022-10-21T14:15:22.231Z,15.10
2022-10-21T14:18:05.149Z,15.10
2022-10-21T14:20:36.459Z,15.10
2022-10-21T14:23:14.011Z,15.10
2022-10-21T14:25:49.747Z,15.10
2022-10-21T14:28:31.054Z,15.10
2022-10-21T14:30:59.167Z,15.10
2022-10-21T14:33:36.419Z,15.10
2022-10-21T14:36:15.412Z,15.10
2022-10-21T14:39:06.292Z,15.10
2022-10-21T14:41:37.610Z,15.00
2022-10-21T14:44:32.931Z,15.00
2022-10-21T14:47:00.990Z,15.00
2022-10-21T14:49:46.120Z,15.00
2022-10-21T14:52:27.240Z,15.00
2022-10-21T14:55:14.040Z,15.00
2022-10-21T14:57:43.947Z,15.00
2022-10-21T15:00:48.898Z,15.00
2022-10-21T15:03:16.354Z,15.00
2022-10-21T15:05:49.016Z,15.00
2022-10-21T15:08:36.390Z,14.90
2022-10-21T15:11:13.088Z,15.00
2022-10-21T15:13:57.078Z,14.90
2022-10-21T15:19:12.934Z,14.90
2022-10-21T15:22:03.936Z,14.90
2022-10-21T15:24:49.354Z,14.90
2022-10-21T15:27:43.926Z,14.90
2022-10-21T15:30:22.800Z,14.90
2022-10-21T15:32:51.080Z,14.90
2022-10-21T15:35:30.044Z,14.80
2022-10-21T15:38:04.083Z,14.80
2022-10-21T15:40:33.368Z,14.80
2022-10-21T15:43:01.335Z,14.80
2022-10-21T15:45:34.925Z,14.80
2022-10-21T15:48:02.599Z,14.80
2022-10-21T15:50:37.034Z,14.80
2022-10-21T15:53:10.900Z,14.80
2022-10-21T15:55:38.865Z,14.80
2022-10-21T15:58:13.004Z,14.70
2022-10-21T16:00:41.089Z,14.70
2022-10-21T16:03:15.953Z,14.70
2022-10-21T16:05:50.010Z,14.70
2022-10-21T16:08:17.180Z,14.60
2022-10-21T16:10:54.883Z,14.60
2022-10-21T16:13:22.326Z,14.60
2022-10-21T16:16:03.332Z,14.60
2022-10-21T16:18:39.168Z,14.50
2022-10-21T16:21:22.882Z,14.50
2022-10-21T16:24:00.504Z,14.50
2022-10-21T16:26:48.170Z,14.50
2022-10-21T16:29:31.300Z,14.50
2022-10-21T16:32:04.879Z,14.40
2022-10-21T16:34:39.976Z,14.40
2022-10-21T16:37:22.006Z,14.30
2022-10-21T16:39:55.904Z,14.30
2022-10-21T16:42:25.530Z,14.30
2022-10-21T16:44:54.252Z,14.30
2022-10-21T16:47:29.021Z,14.30
2022-10-21T16:50:00.810Z,14.20
2022-10-21T16:52:28.466Z,14.10
2022-10-21T16:55:03.972Z,14.10
2022-10-21T16:57:38.341Z,14.10
2022-10-21T17:00:12.937Z,14.10
2022-10-21T17:02:47.871Z,14.10
2022-10-21T17:05:22.095Z,14.10
2022-10-21T17:07:58.907Z,14.00
2022-10-21T17:10:26.217Z,14.00
2022-10-21T17:13:05.945Z,13.90
2022-10-21T17:15:33.406Z,13.90
2022-10-21T17:18:10.667Z,13.90
2022-10-21T17:20:40.475Z,13.90
2022-10-21T17:23:14.035Z,13.90
2022-10-21T17:26:01.020Z,13.90
2022-10-21T17:28:38.166Z,13.90
2022-10-21T17:31:05.589Z,13.90
2022-10-21T17:33:32.771Z,13.80
2022-10-21T17:36:06.995Z,13.80
2022-10-21T17:38:34.673Z,13.80
2022-10-21T17:41:01.995Z,13.70
2022-10-21T17:43:35.942Z,13.70
2022-10-21T17:46:03.803Z,13.70
2022-10-21T17:48:39.333Z,13.60
2022-10-21T17:51:13.173Z,13.60
2022-10-21T17:53:40.514Z,13.60
2022-10-21T17:56:14.994Z,13.60
2022-10-21T17:58:49.204Z,13.60
2022-10-21T18:01:16.674Z,13.60
2022-10-21T18:03:51.383Z,13.60
2022-10-21T18:06:25.125Z,13.60
2022-10-21T18:08:52.485Z,13.60
2022-10-21T18:11:21.375Z,13.60
2022-10-21T18:13:56.260Z,13.60
2022-10-21T18:16:24.364Z,13.60
2022-10-21T18:18:52.836Z,13.60
2022-10-21T18:21:29.083Z,13.50
2022-10-21T18:23:56.786Z,13.50
2022-10-21T18:26:45.135Z,13.50
2022-10-21T18:29:19.413Z,13.50
2022-10-21T18:31:46.809Z,13.40
2022-10-21T18:34:14.478Z,13.40
2022-10-21T18:39:17.834Z,13.30
2022-10-21T18:41:45.724Z,13.30
2022-10-21T18:44:21.004Z,13.30
2022-10-21T18:46:50.185Z,13.20
2022-10-21T18:49:20.233Z,13.30
2022-10-21T18:51:54.064Z,13.30
2022-10-21T18:54:21.755Z,13.20
2022-10-21T18:56:56.098Z,13.20
2022-10-21T18:59:23.639Z,13.20
2022-10-21T19:02:00.343Z,13.20
2022-10-21T19:04:27.634Z,13.20
2022-10-21T19:06:54.974Z,13.10
2022-10-21T19:09:33.094Z,13.10
2022-10-21T19:12:11.969Z,13.10
2022-10-21T19:14:40.884Z,13.10
2022-10-21T19:17:08.176Z,13.10
2022-10-21T19:19:42.190Z,13.10
2022-10-21T19:22:09.706Z,13.10
2022-10-21T19:24:43.964Z,13.10
2022-10-21T19:27:31.073Z,13.00
2022-10-21T19:30:05.165Z,13.00
2022-10-21T19:32:32.454Z,13.00
2022-10-21T19:35:06.151Z,13.00
2022-10-21T19:37:35.905Z,13.10
2022-10-21T19:40:10.117Z,13.10
2022-10-21T19:42:44.293Z,13.20
2022-10-21T19:45:22.309Z,13.20
2022-10-21T19:47:57.179Z,13.20
2022-10-21T19:50:24.445Z,13.20
2022-10-21T19:52:51.593Z,13.20
2022-10-21T19:55:26.149Z,13.20
2022-10-21T19:57:53.544Z,13.20
2022-10-21T20:00:26.942Z,13.20
2022-10-21T20:02:54.174Z,13.20
2022-10-21T20:05:28.119Z,13.10
2022-10-21T20:08:02.111Z,13.20
2022-10-21T20:10:29.549Z,13.20
2022-10-21T20:13:03.124Z,13.10
2022-10-21T20:15:30.434Z,13.20
2022-10-21T20:17:58.994Z,13.20
2022-10-21T20:20:33.193Z,13.20
2022-10-21T20:23:07.067Z,13.20
2022-10-21T20:26:10.054Z,13.20
2022-10-21T20:28:37.893Z,13.20
2022-10-21T20:31:18.017Z,13.30
2022-10-21T20:33:55.289Z,13.30
2022-10-21T20:36:32.787Z,13.30
2022-10-21T20:39:08.086Z,13.30
2022-10-21T20:41:44.102Z,13.30
2022-10-21T20:44:16.567Z,13.20
2022-10-21T20:46:52.042Z,13.20
2022-10-21T20:49:19.651Z,13.20
2022-10-21T20:51:46.818Z,13.30
2022-10-21T20:54:25.938Z,13.30
2022-10-21T20:56:53.631Z,13.40
2022-10-21T20:59:20.889Z,13.30
2022-10-21T21:01:55.197Z,13.40
2022-10-21T21:04:30.951Z,13.40
2022-10-21T21:06:59.788Z,13.40
2022-10-21T21:09:50.266Z,13.40
2022-10-21T21:12:21.100Z,13.40
2022-10-21T21:14:48.264Z,13.40
2022-10-21T21:17:22.190Z,13.40
2022-10-21T21:19:49.613Z,13.30
2022-10-21T21:22:16.839Z,13.30
2022-10-21T21:24:51.101Z,13.30
2022-10-21T21:27:39.590Z,13.30
2022-10-21T21:30:07.394Z,13.30
2022-10-21T21:32:41.113Z,13.30
2022-10-21T21:35:09.237Z,13.30
2022-10-21T21:37:36.299Z,13.40
2022-10-21T21:40:09.961Z,13.40
2022-10-21T21:42:37.094Z,13.40
2022-10-21T21:45:04.836Z,13.40
2022-10-21T21:47:38.967Z,13.40
2022-10-21T21:50:06.791Z,13.40
2022-10-21T21:52:41.045Z,13.40
2022-10-21T21:55:08.596Z,13.30
2022-10-21T21:57:42.047Z,13.30
2022-10-21T22:00:10.342Z,13.30
2022-10-21T22:02:37.629Z,13.30
2022-10-21T22:05:13.055Z,13.20
2022-10-21T22:07:40.731Z,13.20
2022-10-21T22:10:08.471Z,13.20
2022-10-21T22:12:42.087Z,13.20
2022-10-21T22:15:13.669Z,13.20
2022-10-21T22:17:56.056Z,13.30
2022-10-21T22:20:23.323Z,13.30
2022-10-21T22:22:50.518Z,13.30
2022-10-21T22:25:24.983Z,13.20
2022-10-21T22:28:06.017Z,13.20
2022-10-21T22:30:40.137Z,13.20
2022-10-21T22:33:07.384Z,13.20
2022-10-21T22:35:35.108Z,13.20
2022-10-21T22:38:08.996Z,13.20
2022-10-21T22:40:36.335Z,13.20
2022-10-21T22:43:03.671Z,13.20
2022-10-21T22:45:39.041Z,13.20
2022-10-21T22:48:06.376Z,13.20
2022-10-21T22:50:33.567Z,13.20
2022-10-21T22:53:07.537Z,13.20
2022-10-21T22:55:34.797Z,13.20
2022-10-21T22:58:01.993Z,13.20
2022-10-21T23:00:35.981Z,13.20
2022-10-21T23:03:07.375Z,13.20
2022-10-21T23:05:43.066Z,13.20
2022-10-21T23:08:12.382Z,13.20
2022-10-21T23:10:39.654Z,13.30
2022-10-21T23:13:13.045Z,13.30
2022-10-21T23:15:40.153Z,13.30
2022-10-21T23:18:14.314Z,13.30
2022-10-21T23:20:42.050Z,13.20
2022-10-21T23:23:18.088Z,13.20
2022-10-21T23:25:52.192Z,13.20
2022-10-21T23:28:32.041Z,13.20
2022-10-21T23:30:59.876Z,13.20
2022-10-21T23:33:34.082Z,13.20
2022-10-21T23:36:01.751Z,13.20
2022-10-21T23:38:36.006Z,13.20
2022-10-21T23:41:10.111Z,13.20
2022-10-21T23:43:37.711Z,13.20
2022-10-21T23:46:13.127Z,13.20
2022-10-21T23:48:40.917Z,13.20
2022-10-21T23:51:15.115Z,13.20
2022-10-21T23:53:43.565Z,13.20
2022-10-21T23:56:10.869Z,13.20
2022-10-21T23:58:45.091Z,13.20
